Time;durP1;ratioP1;P1;durP2;ratioP2;P2;SDS_P1;SDS_P2;PMS_P1;PMS_P2;Temp;Humidity;BMP_temperature;BMP_pressure;BME280_temperature;BME280_humidity;BME280_pressure;Samples;Min_cycle;Max_cycle;Signal;HPM_P1;HPM_P2
2023/04/18 00:00:51;;;;;;;;;;;;;;;18.93;53.88;98349.59;2079402;28;19928;-46
2023/04/18 00:01:52;;;;;;;;;;;;;;;18.92;53.80;98358.72;2076876;28;20239;-50
2023/04/18 00:02:54;;;;;;;;;;;;;;;18.93;54.29;98350.41;2076813;28;19933;-49
2023/04/18 00:03:55;;;;;;;;;;;;;;;18.93;53.99;98354.97;2077149;28;19974;-48
2023/04/18 00:04:56;;;;;;;;;;;;;;;18.92;54.06;98359.53;2075477;28;19932;-47
2023/04/18 00:05:58;;;;;;;;;;;;;;;18.91;54.02;98357.88;2079455;28;19985;-46
2023/04/18 00:06:59;;;;;;;;;;;;;;;18.91;53.94;98351.66;2078114;28;22114;-48
2023/04/18 00:08:00;;;;;;;;;;;;;;;18.90;54.05;98356.22;2078385;28;19929;-47
2023/04/18 00:09:02;;;;;;;;;;;;;;;18.89;53.95;98354.59;2079846;28;20022;-48
2023/04/18 00:10:03;;;;;;;;;;;;;;;18.89;54.01;98359.16;2079612;28;20572;-48
2023/04/18 00:11:06;;;;;;;;;;;;;;;18.90;54.01;98358.09;2079614;28;20342;-47
2023/04/18 00:12:07;;;;;;;;;;;;;;;18.87;53.80;98351.28;2076882;28;20463;-46
2023/04/18 00:13:09;;;;;;;;;;;;;;;18.87;54.08;98353.97;2073816;28;20015;-48
2023/04/18 00:14:09;;;;;;;;;;;;;;;18.86;54.11;98355.00;2078801;28;19990;-47
2023/04/18 00:15:11;;;;;;;;;;;;;;;18.83;53.90;98354.59;2079096;28;20317;-47
2023/04/18 00:16:12;;;;;;;;;;;;;;;18.83;53.97;98355.41;2078319;28;20365;-49
2023/04/18 00:17:14;;;;;;;;;;;;;;;18.84;53.94;98350.88;2076429;28;19925;-48
2023/04/18 00:18:16;;;;;;;;;;;;;;;18.83;53.84;98346.53;2072799;28;19983;-46
2023/04/18 00:19:18;;;;;;;;;;;;;;;18.82;53.99;98350.25;2075543;28;19939;-47
2023/04/18 00:20:19;;;;;;;;;;;;;;;18.81;53.81;98346.75;2081302;28;19924;-51
2023/04/18 00:21:24;;;;;;;;;;;;;;;18.82;54.07;98348.41;2078835;28;20402;-49
2023/04/18 00:22:24;;;;;;;;;;;;;;;18.81;54.10;98343.25;2079444;28;19986;-48
2023/04/18 00:23:27;;;;;;;;;;;;;;;18.80;53.76;98338.91;2079018;28;21184;-49
2023/04/18 00:24:27;;;;;;;;;;;;;;;18.80;53.87;98342.41;2079879;28;19944;-47
2023/04/18 00:25:29;;;;;;;;;;;;;;;18.78;53.89;98339.13;2078848;28;20528;-48
2023/04/18 00:26:31;;;;;;;;;;;;;;;18.77;53.89;98342.00;2080440;28;20188;-48
2023/04/18 00:27:33;;;;;;;;;;;;;;;18.75;53.91;98345.75;2079988;28;19932;-48
2023/04/18 00:28:33;;;;;;;;;;;;;;;18.77;53.73;98339.31;2077860;28;19929;-48
2023/04/18 00:29:35;;;;;;;;;;;;;;;18.74;54.10;98337.88;2079668;28;20015;-48
2023/04/18 00:30:36;;;;;;;;;;;;;;;18.74;53.88;98335.19;2078691;27;20349;-49
2023/04/18 00:31:37;;;;;;;;;;;;;;;18.74;53.81;98337.88;2077672;28;19976;-47
2023/04/18 00:32:38;;;;;;;;;;;;;;;18.71;54.01;98336.41;2076294;28;20562;-47
2023/04/18 00:33:40;;;;;;;;;;;;;;;18.71;54.00;98331.03;2079500;28;20037;-49
2023/04/18 00:34:40;;;;;;;;;;;;;;;18.73;53.88;98333.53;2080434;28;19981;-48
2023/04/18 00:35:42;;;;;;;;;;;;;;;18.74;54.05;98336.00;2085043;28;19995;-51
2023/04/18 00:36:43;;;;;;;;;;;;;;;18.70;54.10;98333.94;2087263;28;20440;-48
2023/04/18 00:37:44;;;;;;;;;;;;;;;18.68;53.95;98334.16;2073355;28;19971;-45
2023/04/18 00:38:45;;;;;;;;;;;;;;;18.67;54.07;98335.19;2077820;28;19986;-46
2023/04/18 00:39:47;;;;;;;;;;;;;;;18.68;53.94;98331.47;2082652;28;20416;-48
2023/04/18 00:40:47;;;;;;;;;;;;;;;18.68;54.12;98334.16;2078655;28;19925;-47
2023/04/18 00:41:50;;;;;;;;;;;;;;;18.69;54.02;98332.28;2080835;28;20389;-49
2023/04/18 00:42:51;;;;;;;;;;;;;;;18.69;53.94;98332.28;2077932;28;19986;-47
2023/04/18 00:43:53;;;;;;;;;;;;;;;18.67;53.95;98339.75;2078737;28;20528;-49
2023/04/18 00:44:54;;;;;;;;;;;;;;;18.67;54.14;98331.69;2077085;28;20007;-47
2023/04/18 00:46:00;;;;;;;;;;;;;;;18.66;54.27;98330.03;2079561;28;19929;-47
2023/04/18 00:47:00;;;;;;;;;;;;;;;18.66;53.95;98340.75;2076173;28;19933;-46
2023/04/18 00:48:02;;;;;;;;;;;;;;;18.65;54.00;98331.06;2079323;28;20382;-47
2023/04/18 00:49:03;;;;;;;;;;;;;;;18.62;54.15;98335.00;2077649;28;20000;-46
2023/04/18 00:50:05;;;;;;;;;;;;;;;18.62;54.21;98323.44;2078329;28;20026;-46
2023/04/18 00:51:06;;;;;;;;;;;;;;;18.62;54.03;98328.81;2084671;28;20282;-46
2023/04/18 00:52:08;;;;;;;;;;;;;;;18.62;54.17;98326.94;2078095;28;19939;-48
2023/04/18 00:53:10;;;;;;;;;;;;;;;18.61;54.30;98328.00;2077349;28;19928;-49
2023/04/18 00:54:11;;;;;;;;;;;;;;;18.61;54.10;98324.44;2069266;28;19936;-47
2023/04/18 00:55:13;;;;;;;;;;;;;;;18.61;54.14;98324.44;2084976;28;19929;-46
2023/04/18 00:56:14;;;;;;;;;;;;;;;18.60;54.15;98330.88;2079225;28;19978;-47
2023/04/18 00:57:17;;;;;;;;;;;;;;;18.61;54.01;98327.13;2078660;28;19928;-47
2023/04/18 00:58:19;;;;;;;;;;;;;;;18.60;54.24;98325.50;2078911;28;19977;-48
2023/04/18 00:59:20;;;;;;;;;;;;;;;18.59;54.19;98324.69;2079790;27;19929;-46
2023/04/18 01:00:22;;;;;;;;;;;;;;;18.60;54.20;98330.88;2080800;28;20292;-48
2023/04/18 01:01:22;;;;;;;;;;;;;;;18.59;54.14;98326.53;2080813;28;19928;-48
2023/04/18 01:02:25;;;;;;;;;;;;;;;18.58;54.19;98324.88;2083161;28;20444;-50
2023/04/18 01:03:25;;;;;;;;;;;;;;;18.58;54.39;98328.38;2077360;28;19943;-46
2023/04/18 01:04:27;;;;;;;;;;;;;;;18.57;54.23;98324.06;2071940;28;20458;-46
2023/04/18 01:05:28;;;;;;;;;;;;;;;18.57;54.34;98328.59;2076970;28;20333;-47
2023/04/18 01:06:30;;;;;;;;;;;;;;;18.56;54.22;98324.28;2082160;28;19975;-46
2023/04/18 01:07:32;;;;;;;;;;;;;;;18.56;54.32;98332.34;2075689;28;19939;-47
2023/04/18 01:08:33;;;;;;;;;;;;;;;18.54;54.04;98325.28;2079429;28;19932;-48
2023/04/18 01:09:34;;;;;;;;;;;;;;;18.54;54.32;98332.53;2082099;28;20002;-48
2023/04/18 01:10:37;;;;;;;;;;;;;;;18.52;54.43;98324.69;2074586;28;19932;-51
2023/04/18 01:11:37;;;;;;;;;;;;;;;18.54;54.12;98327.16;2079634;28;20308;-46
2023/04/18 01:12:41;;;;;;;;;;;;;;;18.52;54.11;98327.38;2066687;28;19924;-47
2023/04/18 01:13:41;;;;;;;;;;;;;;;18.51;54.17;98320.34;2079653;28;19975;-47
2023/04/18 01:14:43;;;;;;;;;;;;;;;18.51;54.52;98327.59;2071216;28;19987;-49
2023/04/18 01:15:44;;;;;;;;;;;;;;;18.49;54.11;98327.78;2077598;28;19928;-47
2023/04/18 01:16:47;;;;;;;;;;;;;;;18.48;54.28;98320.78;2076161;28;20449;-48
2023/04/18 01:17:47;;;;;;;;;;;;;;;18.49;54.47;98322.41;2078578;28;19939;-47
2023/04/18 01:18:49;;;;;;;;;;;;;;;18.49;54.26;98324.28;2077292;28;19964;-48
2023/04/18 01:19:50;;;;;;;;;;;;;;;18.47;54.12;98320.97;2077988;28;20102;-46
2023/04/18 01:20:53;;;;;;;;;;;;;;;18.46;54.41;98320.16;2078345;28;19936;-49
2023/04/18 01:21:54;;;;;;;;;;;;;;;18.49;54.16;98325.09;2082534;28;19932;-46
2023/04/18 01:22:56;;;;;;;;;;;;;;;18.48;54.25;98315.41;2079467;28;19939;-46
2023/04/18 01:24:00;;;;;;;;;;;;;;;18.47;54.51;98324.50;2078310;28;19925;-48
2023/04/18 01:25:08;;;;;;;;;;;;;;;18.47;54.15;98315.59;2076642;28;20409;-47
2023/04/18 01:26:08;;;;;;;;;;;;;;;18.47;54.02;98318.28;2078568;28;19943;-48
2023/04/18 01:27:12;;;;;;;;;;;;;;;18.46;54.17;98317.47;2075902;28;20371;-49
2023/04/18 01:28:13;;;;;;;;;;;;;;;18.45;54.32;98321.19;2075740;28;19929;-46
2023/04/18 01:29:15;;;;;;;;;;;;;;;18.45;54.26;98315.00;2078240;28;19998;-47
2023/04/18 01:30:16;;;;;;;;;;;;;;;18.44;54.17;98319.56;2076028;28;19928;-47
2023/04/18 01:31:17;;;;;;;;;;;;;;;18.43;54.38;98317.88;2080444;28;19982;-49
2023/04/18 01:32:19;;;;;;;;;;;;;;;18.43;54.25;98317.06;2077323;28;20325;-46
2023/04/18 01:33:21;;;;;;;;;;;;;;;18.41;53.99;98309.22;2063278;28;20413;-46
2023/04/18 01:34:21;;;;;;;;;;;;;;;18.42;54.36;98315.44;2076171;28;19932;-48
2023/04/18 01:35:23;;;;;;;;;;;;;;;18.42;54.36;98316.25;2077940;28;20028;-47
2023/04/18 01:36:23;;;;;;;;;;;;;;;18.41;54.36;98311.91;2078341;28;19932;-47
2023/04/18 01:37:25;;;;;;;;;;;;;;;18.42;54.21;98315.44;2081419;28;19978;-48
2023/04/18 01:38:26;;;;;;;;;;;;;;;18.41;54.28;98311.91;2078747;28;19978;-51
2023/04/18 01:39:28;;;;;;;;;;;;;;;18.40;54.22;98304.88;2081171;28;19975;-47
2023/04/18 01:40:30;;;;;;;;;;;;;;;18.39;54.28;98311.31;2078790;28;20662;-49
2023/04/18 01:41:32;;;;;;;;;;;;;;;18.41;54.25;98308.38;2076763;28;20369;-45
2023/04/18 01:42:32;;;;;;;;;;;;;;;18.40;54.48;98310.25;2077250;28;19925;-47
2023/04/18 01:43:34;;;;;;;;;;;;;;;18.40;54.16;98310.25;2078062;28;20395;-49
2023/04/18 01:44:35;;;;;;;;;;;;;;;18.39;54.15;98307.81;2077483;28;19928;-47
2023/04/18 01:45:36;;;;;;;;;;;;;;;18.38;54.14;98309.63;2077125;28;19959;-51
2023/04/18 01:46:38;;;;;;;;;;;;;;;18.38;54.21;98311.50;2078128;28;19935;-49
2023/04/18 01:47:40;;;;;;;;;;;;;;;18.38;54.35;98306.94;2079313;28;20086;-49
2023/04/18 01:48:41;;;;;;;;;;;;;;;18.37;54.23;98304.50;2077091;28;19944;-48
2023/04/18 01:49:46;;;;;;;;;;;;;;;18.38;54.34;98303.44;2078415;28;20414;-46
2023/04/18 01:50:47;;;;;;;;;;;;;;;18.36;54.08;98302.81;2067878;28;19977;-48
2023/04/18 01:51:49;;;;;;;;;;;;;;;18.36;54.37;98308.19;2076374;28;20020;-48
2023/04/18 01:52:49;;;;;;;;;;;;;;;18.35;54.58;98304.69;2078722;28;19932;-47
2023/04/18 01:53:51;;;;;;;;;;;;;;;18.33;54.19;98309.47;2078474;28;19980;-46
2023/04/18 01:54:52;;;;;;;;;;;;;;;18.34;54.45;98302.22;2077424;28;19970;-47
2023/04/18 01:55:56;;;;;;;;;;;;;;;18.34;54.51;98307.59;2076001;28;20013;-48
2023/04/18 01:56:57;;;;;;;;;;;;;;;18.34;54.44;98305.72;2075696;28;19975;-49
2023/04/18 01:57:58;;;;;;;;;;;;;;;18.32;54.40;98305.09;2078045;28;19951;-49
2023/04/18 01:58:59;;;;;;;;;;;;;;;18.30;54.47;98309.84;2078167;28;19928;-47
2023/04/18 02:00:01;;;;;;;;;;;;;;;18.30;54.35;98301.81;2083149;28;20005;-48
2023/04/18 02:01:01;;;;;;;;;;;;;;;18.29;54.54;98300.97;2084834;28;19970;-48
2023/04/18 02:02:03;;;;;;;;;;;;;;;18.33;54.37;98308.63;2085362;28;20410;-47
2023/04/18 02:03:04;;;;;;;;;;;;;;;18.31;54.22;98304.28;2085855;28;20189;-48
2023/04/18 02:04:05;;;;;;;;;;;;;;;18.30;54.58;98308.03;2088398;28;19924;-47
2023/04/18 02:05:07;;;;;;;;;;;;;;;18.30;54.55;98307.16;2087004;28;19989;-49
2023/04/18 02:06:08;;;;;;;;;;;;;;;18.30;54.45;98301.81;2087753;28;19940;-49
2023/04/18 02:07:09;;;;;;;;;;;;;;;18.28;54.09;98306.56;2087108;28;19933;-48
2023/04/18 02:08:11;;;;;;;;;;;;;;;18.29;54.13;98306.34;2076799;28;20672;-48
2023/04/18 02:09:12;;;;;;;;;;;;;;;18.30;54.70;98299.97;2086106;28;19936;-48
2023/04/18 02:10:13;;;;;;;;;;;;;;;18.27;54.27;98297.66;2085114;28;20485;-49
2023/04/18 02:11:15;;;;;;;;;;;;;;;18.26;54.47;98301.41;2085229;28;19971;-48
2023/04/18 02:12:17;;;;;;;;;;;;;;;18.28;54.52;98303.91;2086596;28;19925;-47
2023/04/18 02:13:18;;;;;;;;;;;;;;;18.27;54.48;98296.84;2084444;28;20003;-48
2023/04/18 02:14:19;;;;;;;;;;;;;;;18.29;54.20;98297.47;2085946;28;19933;-47
2023/04/18 02:15:22;;;;;;;;;;;;;;;18.28;54.39;98295.84;2085811;28;19955;-47
2023/04/18 02:16:24;;;;;;;;;;;;;;;18.27;54.13;98303.03;2085078;28;19933;-47
2023/04/18 02:17:24;;;;;;;;;;;;;;;18.26;54.10;98292.53;2084069;28;19940;-49
2023/04/18 02:18:26;;;;;;;;;;;;;;;18.25;54.50;98294.41;2085217;28;19931;-48
2023/04/18 02:19:28;;;;;;;;;;;;;;;18.26;54.25;98289.84;2087239;28;19985;-48
2023/04/18 02:20:30;;;;;;;;;;;;;;;18.26;53.95;98292.53;2086434;28;20349;-48
2023/04/18 02:21:31;;;;;;;;;;;;;;;18.25;54.37;98293.56;2084651;28;19928;-46
2023/04/18 02:22:32;;;;;;;;;;;;;;;18.25;54.26;98298.94;2084773;28;20452;-50
2023/04/18 02:23:33;;;;;;;;;;;;;;;18.23;54.53;98295.63;2087440;28;19928;-46
2023/04/18 02:24:35;;;;;;;;;;;;;;;18.24;54.30;98297.28;2086097;28;20006;-49
2023/04/18 02:25:35;;;;;;;;;;;;;;;18.25;54.07;98298.94;2084633;28;19932;-48
2023/04/18 02:26:38;;;;;;;;;;;;;;;18.23;54.19;98301.00;2079730;28;20294;-47
2023/04/18 02:27:39;;;;;;;;;;;;;;;18.23;54.08;98298.31;2085699;28;20415;-49
2023/04/18 02:28:41;;;;;;;;;;;;;;;18.21;54.37;98305.75;2085114;28;20010;-49
2023/04/18 02:29:42;;;;;;;;;;;;;;;18.19;54.60;98305.13;2087763;28;19978;-47
2023/04/18 02:30:43;;;;;;;;;;;;;;;18.20;54.40;98304.09;2089276;28;19977;-49
2023/04/18 02:31:44;;;;;;;;;;;;;;;18.21;54.51;98300.38;2087918;28;19977;-47
2023/04/18 02:32:45;;;;;;;;;;;;;;;18.20;54.32;98296.06;2084563;28;19999;-48
2023/04/18 02:33:46;;;;;;;;;;;;;;;18.20;54.21;98302.25;2085611;28;20017;-48
2023/04/18 02:34:48;;;;;;;;;;;;;;;18.18;54.34;98301.63;2084591;28;20025;-48
2023/04/18 02:35:48;;;;;;;;;;;;;;;18.20;54.48;98298.75;2089312;28;19924;-48
2023/04/18 02:36:50;;;;;;;;;;;;;;;18.21;54.45;98300.38;2087173;28;20284;-47
2023/04/18 02:37:51;;;;;;;;;;;;;;;18.21;54.28;98300.38;2084984;28;19929;-48
2023/04/18 02:38:52;;;;;;;;;;;;;;;18.19;54.26;98297.06;2077955;28;20419;-49
2023/04/18 02:39:53;;;;;;;;;;;;;;;18.19;54.50;98299.75;2076701;28;19929;-46
2023/04/18 02:40:55;;;;;;;;;;;;;;;18.17;54.33;98296.47;2078100;28;19940;-46
2023/04/18 02:41:57;;;;;;;;;;;;;;;18.19;54.59;98299.75;2079344;28;20463;-49
2023/04/18 02:42:59;;;;;;;;;;;;;;;18.17;54.52;98301.84;2076682;28;19928;-48
2023/04/18 02:43:59;;;;;;;;;;;;;;;18.16;54.63;98300.19;2075346;28;20001;-46
2023/04/18 02:45:01;;;;;;;;;;;;;;;18.17;54.04;98299.97;2069785;28;19937;-48
2023/04/18 02:46:02;;;;;;;;;;;;;;;18.17;54.45;98302.66;2075327;28;19986;-47
2023/04/18 02:47:03;;;;;;;;;;;;;;;18.17;54.16;98296.47;2077635;28;19928;-47
2023/04/18 02:48:04;;;;;;;;;;;;;;;18.15;54.57;98295.84;2078318;28;19933;-48
2023/04/18 02:49:06;;;;;;;;;;;;;;;18.16;54.46;98301.00;2078846;28;20006;-45
2023/04/18 02:50:07;;;;;;;;;;;;;;;18.14;54.48;98297.72;2075668;28;20355;-51
2023/04/18 02:51:09;;;;;;;;;;;;;;;18.16;54.32;98300.19;2077413;28;20056;-48
2023/04/18 02:52:10;;;;;;;;;;;;;;;18.14;54.41;98294.22;2077156;28;22238;-48
2023/04/18 02:53:12;;;;;;;;;;;;;;;18.14;54.49;98295.03;2080298;28;20031;-48
2023/04/18 02:54:12;;;;;;;;;;;;;;;18.15;54.21;98293.16;2084674;28;19974;-47
2023/04/18 02:55:14;;;;;;;;;;;;;;;18.14;54.56;98296.91;2086838;28;20383;-48
2023/04/18 02:56:16;;;;;;;;;;;;;;;18.13;54.13;98298.72;2088462;28;20460;-48
2023/04/18 02:57:19;;;;;;;;;;;;;;;18.12;54.32;98298.97;2078164;28;20302;-54
2023/04/18 02:58:20;;;;;;;;;;;;;;;18.14;54.66;98294.22;2080559;28;20353;-51
2023/04/18 02:59:21;;;;;;;;;;;;;;;18.14;54.28;98303.09;2081286;28;19951;-48
2023/04/18 03:00:23;;;;;;;;;;;;;;;18.14;54.36;98302.25;2080443;28;20014;-49
2023/04/18 03:01:23;;;;;;;;;;;;;;;18.13;54.08;98297.91;2078718;28;19928;-48
2023/04/18 03:02:25;;;;;;;;;;;;;;;18.12;54.37;98302.47;2071841;28;20234;-48
2023/04/18 03:03:26;;;;;;;;;;;;;;;18.12;54.33;98299.78;2076991;28;20842;-47
2023/04/18 03:04:27;;;;;;;;;;;;;;;18.12;54.33;98299.78;2078835;28;19964;-48
2023/04/18 03:05:28;;;;;;;;;;;;;;;18.09;54.23;98305.56;2078909;28;19928;-49
2023/04/18 03:06:30;;;;;;;;;;;;;;;18.09;54.17;98301.00;2081131;28;19960;-49
2023/04/18 03:07:31;;;;;;;;;;;;;;;18.09;54.15;98298.34;2078993;28;20035;-49
2023/04/18 03:08:32;;;;;;;;;;;;;;;18.09;54.62;98306.38;2081233;28;19936;-50
2023/04/18 03:09:34;;;;;;;;;;;;;;;18.09;54.26;98303.69;2085380;28;19982;-50
2023/04/18 03:10:36;;;;;;;;;;;;;;;18.08;54.55;98302.06;2081609;28;19933;-50
2023/04/18 03:11:37;;;;;;;;;;;;;;;18.08;54.38;98299.38;2079707;28;19928;-52
2023/04/18 03:12:40;;;;;;;;;;;;;;;18.11;54.21;98302.66;2079595;28;19928;-51
2023/04/18 03:13:40;;;;;;;;;;;;;;;18.11;54.37;98302.66;2077508;28;20317;-52
2023/04/18 03:14:43;;;;;;;;;;;;;;;18.12;54.17;98297.09;2079721;28;20019;-51
2023/04/18 03:15:43;;;;;;;;;;;;;;;18.14;54.01;98296.91;2080693;28;19933;-50
2023/04/18 03:16:45;;;;;;;;;;;;;;;18.17;54.09;98296.47;2080523;28;20029;-49
2023/04/18 03:17:46;;;;;;;;;;;;;;;18.17;53.90;98301.84;2078198;28;19928;-48
2023/04/18 03:18:47;;;;;;;;;;;;;;;18.17;54.16;98294.63;2079049;28;19964;-52
2023/04/18 03:19:48;;;;;;;;;;;;;;;18.17;54.08;98291.09;2070505;28;20755;-49
2023/04/18 03:20:50;;;;;;;;;;;;;;;18.20;53.99;98296.06;2079037;28;19936;-51
2023/04/18 03:21:50;;;;;;;;;;;;;;;18.17;53.92;98294.63;2078595;28;19989;-51
2023/04/18 03:22:52;;;;;;;;;;;;;;;18.18;53.86;98298.13;2078149;28;19928;-50
2023/04/18 03:23:53;;;;;;;;;;;;;;;18.19;53.99;98300.59;2078801;28;19925;-51
2023/04/18 03:24:54;;;;;;;;;;;;;;;18.19;54.13;98297.06;2085466;28;19993;-51
2023/04/18 03:25:55;;;;;;;;;;;;;;;18.21;54.05;98297.69;2077421;28;19994;-50
2023/04/18 03:26:58;;;;;;;;;;;;;;;18.21;54.15;98292.31;2082285;28;19989;-49
2023/04/18 03:28:00;;;;;;;;;;;;;;;18.21;54.05;98286.97;2076814;28;19940;-52
2023/04/18 03:29:02;;;;;;;;;;;;;;;18.20;54.04;98294.19;2080555;28;19932;-50
2023/04/18 03:30:03;;;;;;;;;;;;;;;18.19;54.14;98289.00;2074469;28;19928;-51
2023/04/18 03:31:05;;;;;;;;;;;;;;;18.21;54.08;98295.84;2078690;28;19928;-52
2023/04/18 03:32:06;;;;;;;;;;;;;;;18.24;54.05;98297.28;2074253;28;19925;-52
2023/04/18 03:33:08;;;;;;;;;;;;;;;18.24;53.97;98295.41;2079719;28;20025;-48
2023/04/18 03:34:08;;;;;;;;;;;;;;;18.26;53.93;98301.41;2079272;28;20035;-52
2023/04/18 03:35:11;;;;;;;;;;;;;;;18.28;53.44;98296.66;2079236;28;19933;-48
2023/04/18 03:36:14;;;;;;;;;;;;;;;18.33;53.51;98296.03;2078925;28;19932;-49
2023/04/18 03:37:15;;;;;;;;;;;;;;;18.39;53.30;98305.94;2079660;28;19928;-50
2023/04/18 03:38:16;;;;;;;;;;;;;;;18.46;53.21;98306.72;2068973;28;23126;-52
2023/04/18 03:39:17;;;;;;;;;;;;;;;18.50;53.13;98301.78;2076885;28;20361;-50
2023/04/18 03:40:19;;;;;;;;;;;;;;;18.54;53.08;98289.56;2082390;28;19929;-49
2023/04/18 03:41:19;;;;;;;;;;;;;;;18.60;53.09;98294.09;2078421;28;19924;-51
2023/04/18 03:42:21;;;;;;;;;;;;;;;18.62;52.76;98292.03;2079896;28;19933;-53
2023/04/18 03:43:23;;;;;;;;;;;;;;;18.69;52.70;98291.97;2077796;28;19971;-51
2023/04/18 03:44:25;;;;;;;;;;;;;;;18.74;52.65;98297.59;2078546;28;20039;-50
2023/04/18 03:45:25;;;;;;;;;;;;;;;18.76;52.74;98290.13;2079884;28;20026;-50
2023/04/18 03:46:27;;;;;;;;;;;;;;;18.82;52.48;98294.66;2077803;28;19963;-52
2023/04/18 03:47:28;;;;;;;;;;;;;;;18.87;52.29;98297.53;2076443;28;19924;-51
2023/04/18 03:48:34;;;;;;;;;;;;;;;18.92;52.29;98295.03;2082977;28;20005;-51
2023/04/18 03:49:35;;;;;;;;;;;;;;;18.99;52.22;98300.38;2080196;28;20540;-51
2023/04/18 03:50:36;;;;;;;;;;;;;;;19.03;52.24;98295.38;2076862;28;19963;-51
2023/04/18 03:51:41;;;;;;;;;;;;;;;19.10;52.08;98297.00;2079082;28;20029;-48
2023/04/18 03:52:43;;;;;;;;;;;;;;;19.13;51.90;98296.56;2079597;28;20399;-48
2023/04/18 03:53:43;;;;;;;;;;;;;;;19.19;52.00;98298.41;2077769;28;20001;-51
2023/04/18 03:54:45;;;;;;;;;;;;;;;19.21;51.99;98295.50;2079645;28;19936;-53
2023/04/18 03:55:46;;;;;;;;;;;;;;;19.24;51.88;98296.94;2077968;28;19981;-49
2023/04/18 03:56:47;;;;;;;;;;;;;;;19.27;51.86;98299.19;2075720;28;19999;-48
2023/04/18 03:57:48;;;;;;;;;;;;;;;19.26;51.54;98305.63;2077511;28;19937;-51
2023/04/18 03:58:51;;;;;;;;;;;;;;;19.33;51.52;98303.69;2077799;28;19928;-51
2023/04/18 03:59:52;;;;;;;;;;;;;;;19.34;51.77;98302.69;2078851;28;19935;-50
2023/04/18 04:00:54;;;;;;;;;;;;;;;19.31;51.74;98303.13;2086610;28;19986;-48
2023/04/18 04:01:54;;;;;;;;;;;;;;;19.35;51.36;98305.13;2088294;28;19928;-49
2023/04/18 04:02:56;;;;;;;;;;;;;;;19.36;51.39;98296.03;2089068;28;20331;-52
2023/04/18 04:03:57;;;;;;;;;;;;;;;19.38;51.71;98301.19;2086498;28;20037;-48
2023/04/18 04:04:58;;;;;;;;;;;;;;;19.40;51.36;98302.63;2087409;28;19968;-49
2023/04/18 04:05:59;;;;;;;;;;;;;;;19.38;51.81;98301.19;2085086;28;19924;-49
2023/04/18 04:07:01;;;;;;;;;;;;;;;19.38;51.49;98302.00;2085674;28;20824;-48
2023/04/18 04:08:02;;;;;;;;;;;;;;;19.38;51.75;98302.00;2085323;28;20016;-49
2023/04/18 04:09:03;;;;;;;;;;;;;;;19.41;51.81;98304.25;2086726;28;19932;-50
2023/04/18 04:10:04;;;;;;;;;;;;;;;19.46;51.53;98303.63;2086192;28;19929;-50
2023/04/18 04:11:06;;;;;;;;;;;;;;;19.43;51.45;98304.06;2085613;28;19925;-49
2023/04/18 04:12:07;;;;;;;;;;;;;;;19.46;51.68;98310.88;2076971;28;19932;-48
2023/04/18 04:13:08;;;;;;;;;;;;;;;19.45;51.55;98302.00;2085256;28;20464;-52
2023/04/18 04:14:10;;;;;;;;;;;;;;;19.47;51.84;98307.13;2085657;28;19929;-50
2023/04/18 04:15:12;;;;;;;;;;;;;;;19.51;51.66;98305.66;2085557;28;20319;-49
2023/04/18 04:16:13;;;;;;;;;;;;;;;19.49;51.67;98310.44;2085614;28;21589;-50
2023/04/18 04:17:15;;;;;;;;;;;;;;;19.50;51.56;98306.69;2086262;28;20743;-49
2023/04/18 04:18:15;;;;;;;;;;;;;;;19.52;51.37;98308.13;2087276;28;19928;-49
2023/04/18 04:19:17;;;;;;;;;;;;;;;19.55;51.57;98307.69;2086148;28;19928;-49
2023/04/18 04:20:22;;;;;;;;;;;;;;;19.55;51.40;98302.31;2084829;28;19936;-49
2023/04/18 04:21:25;;;;;;;;;;;;;;;19.57;51.31;98316.38;2088200;28;19932;-49
2023/04/18 04:22:26;;;;;;;;;;;;;;;19.55;51.24;98304.19;2081760;28;20015;-49
2023/04/18 04:23:28;;;;;;;;;;;;;;;19.56;51.58;98311.22;2082288;28;20310;-48
2023/04/18 04:24:29;;;;;;;;;;;;;;;19.57;51.38;98311.00;2083175;28;19928;-51
2023/04/18 04:25:32;;;;;;;;;;;;;;;19.55;51.46;98305.00;2084323;28;19968;-48
2023/04/18 04:26:34;;;;;;;;;;;;;;;19.58;51.41;98303.75;2082758;28;19925;-49
2023/04/18 04:27:37;;;;;;;;;;;;;;;19.60;51.51;98317.81;2088258;28;20070;-48
2023/04/18 04:28:38;;;;;;;;;;;;;;;19.60;51.23;98304.34;2083845;28;19942;-49
2023/04/18 04:29:42;;;;;;;;;;;;;;;19.61;51.40;98309.53;2079815;28;19925;-50
2023/04/18 04:30:43;;;;;;;;;;;;;;;19.62;51.42;98305.78;2071700;28;19928;-49
2023/04/18 04:31:45;;;;;;;;;;;;;;;19.62;51.38;98313.03;2087516;28;19932;-51
2023/04/18 04:32:46;;;;;;;;;;;;;;;19.63;51.14;98306.59;2081951;28;19929;-48
2023/04/18 04:33:48;;;;;;;;;;;;;;;19.63;51.42;98309.28;2083936;28;20602;-48
2023/04/18 04:34:49;;;;;;;;;;;;;;;19.66;51.31;98306.19;2085410;28;19925;-50
2023/04/18 04:35:51;;;;;;;;;;;;;;;19.68;51.31;98306.81;2084083;28;19928;-52
2023/04/18 04:36:53;;;;;;;;;;;;;;;19.68;51.47;98298.75;2084734;28;19982;-52
2023/04/18 04:37:55;;;;;;;;;;;;;;;19.68;51.14;98309.50;2078779;28;19929;-50
2023/04/18 04:38:55;;;;;;;;;;;;;;;19.71;51.04;98302.88;2082873;28;19933;-48
2023/04/18 04:39:59;;;;;;;;;;;;;;;19.68;51.47;98306.00;2071166;28;19994;-50
2023/04/18 04:41:00;;;;;;;;;;;;;;;19.69;51.59;98304.94;2087530;28;20286;-50
2023/04/18 04:42:03;;;;;;;;;;;;;;;19.68;51.34;98300.63;2086627;28;19991;-49
2023/04/18 04:43:04;;;;;;;;;;;;;;;19.68;51.59;98309.50;2083687;28;19939;-50
2023/04/18 04:44:06;;;;;;;;;;;;;;;19.70;51.30;98312.00;2082932;28;20494;-47
2023/04/18 04:45:09;;;;;;;;;;;;;;;19.70;51.20;98307.44;2078039;28;20294;-52
2023/04/18 04:46:12;;;;;;;;;;;;;;;19.72;51.31;98310.69;2079408;28;20035;-52
2023/04/18 04:47:12;;;;;;;;;;;;;;;19.71;51.40;98301.00;2080432;28;20306;-52
2023/04/18 04:48:14;;;;;;;;;;;;;;;19.71;51.28;98314.44;2080478;28;19928;-50
2023/04/18 04:49:15;;;;;;;;;;;;;;;19.73;51.18;98315.06;2085284;28;22123;-53
2023/04/18 04:50:18;;;;;;;;;;;;;;;19.74;51.42;98318.56;2079397;28;19936;-52
2023/04/18 04:51:18;;;;;;;;;;;;;;;19.72;51.31;98312.56;2081681;28;19928;-50
2023/04/18 04:52:20;;;;;;;;;;;;;;;19.71;51.44;98319.00;2073917;28;20984;-51
2023/04/18 04:53:21;;;;;;;;;;;;;;;19.70;51.56;98318.19;2079735;28;19932;-50
2023/04/18 04:54:22;;;;;;;;;;;;;;;19.72;51.28;98316.09;2080032;28;19959;-53
2023/04/18 04:55:23;;;;;;;;;;;;;;;19.72;51.41;98318.78;2081435;28;19975;-50
2023/04/18 04:56:25;;;;;;;;;;;;;;;19.74;51.27;98323.94;2056980;28;20001;-48
2023/04/18 04:57:25;;;;;;;;;;;;;;;19.72;51.54;98326.03;2078343;28;20025;-48
2023/04/18 04:58:27;;;;;;;;;;;;;;;19.71;51.68;98325.22;2079580;28;20002;-52
2023/04/18 04:59:28;;;;;;;;;;;;;;;19.72;51.27;98316.09;2079743;28;19936;-50
2023/04/18 05:00:31;;;;;;;;;;;;;;;19.71;51.40;98325.22;2074751;28;19928;-52
2023/04/18 05:01:32;;;;;;;;;;;;;;;19.74;51.40;98316.69;2077017;28;19985;-53
2023/04/18 05:02:33;;;;;;;;;;;;;;;19.77;51.17;98321.63;2081987;28;20279;-53
2023/04/18 05:03:35;;;;;;;;;;;;;;;19.73;51.22;98320.44;2079329;28;19998;-50
2023/04/18 05:04:36;;;;;;;;;;;;;;;19.77;51.50;98327.03;2076085;28;20181;-53
2023/04/18 05:05:37;;;;;;;;;;;;;;;19.74;51.63;98324.78;2069784;28;26283;-48
2023/04/18 05:06:39;;;;;;;;;;;;;;;19.75;51.42;98325.59;2073971;28;20020;-49
2023/04/18 05:07:40;;;;;;;;;;;;;;;19.76;51.34;98324.56;2081072;28;20028;-52
2023/04/18 05:08:41;;;;;;;;;;;;;;;19.75;51.40;98325.59;2081207;28;20609;-52
2023/04/18 05:09:43;;;;;;;;;;;;;;;19.74;51.37;98330.16;2076926;28;19983;-52
2023/04/18 05:10:44;;;;;;;;;;;;;;;19.73;51.42;98328.50;2084184;28;19936;-50
2023/04/18 05:11:48;;;;;;;;;;;;;;;19.74;51.30;98329.34;2078590;28;20754;-53
2023/04/18 05:12:48;;;;;;;;;;;;;;;19.76;51.58;98325.38;2076610;28;19932;-52
2023/04/18 05:13:50;;;;;;;;;;;;;;;19.75;51.59;98331.81;2071793;28;19932;-51
2023/04/18 05:14:51;;;;;;;;;;;;;;;19.76;51.55;98322.69;2072979;28;19933;-53
2023/04/18 05:15:54;;;;;;;;;;;;;;;19.74;51.63;98324.78;2079322;28;20003;-50
2023/04/18 05:16:55;;;;;;;;;;;;;;;19.74;51.16;98324.78;2077031;28;20011;-51
2023/04/18 05:17:56;;;;;;;;;;;;;;;19.74;51.46;98332.84;2078793;28;20012;-51
2023/04/18 05:18:57;;;;;;;;;;;;;;;19.75;51.64;98325.59;2077834;28;20291;-50
2023/04/18 05:19:59;;;;;;;;;;;;;;;19.75;51.53;98333.66;2076819;28;19971;-52
2023/04/18 05:20:59;;;;;;;;;;;;;;;19.73;51.61;98325.00;2077468;28;20437;-49